Time;durP1;ratioP1;P1;durP2;ratioP2;P2;SDS_P1;SDS_P2;PMS_P1;PMS_P2;Temp;Humidity;BMP_temperature;BMP_pressure;BME280_temperature;BME280_humidity;BME280_pressure;Samples;Min_cycle;Max_cycle;Signal;HPM_P1;HPM_P2
2022/07/19 00:02:23;;;;;;;3.25;1.83;;;18.10;99.40;;;;;;5052502;28;20068;-73
2022/07/19 00:04:49;;;;;;;4.40;2.20;;;18.10;99.30;;;;;;5038101;28;20037;-73
2022/07/19 00:07:14;;;;;;;4.50;1.60;;;18.10;99.20;;;;;;5035800;28;20128;-74
2022/07/19 00:09:40;;;;;;;3.28;1.50;;;18.10;99.10;;;;;;5038521;28;20088;-73
2022/07/19 00:12:06;;;;;;;4.55;1.92;;;18.10;99.10;;;;;;5034812;28;20122;-74
2022/07/19 00:14:31;;;;;;;3.22;1.50;;;18.10;99.20;;;;;;5036863;28;20048;-74
2022/07/19 00:16:57;;;;;;;2.70;1.58;;;18.00;99.20;;;;;;5038245;28;20036;-74
2022/07/19 00:19:23;;;;;;;2.90;1.67;;;18.00;99.30;;;;;;5020621;28;20037;-74
2022/07/19 00:21:49;;;;;;;4.30;1.77;;;18.00;99.30;;;;;;5037973;28;20087;-73
2022/07/19 00:24:14;;;;;;;4.35;2.03;;;17.90;99.40;;;;;;5036776;28;20444;-73
2022/07/19 00:26:40;;;;;;;3.35;1.77;;;17.90;99.50;;;;;;5039259;28;20040;-74
2022/07/19 00:29:06;;;;;;;4.20;1.98;;;17.90;99.60;;;;;;5034422;28;20044;-74
2022/07/19 00:31:31;;;;;;;2.72;1.80;;;17.90;99.60;;;;;;5036490;28;20127;-73
2022/07/19 00:33:57;;;;;;;2.70;1.77;;;17.90;99.60;;;;;;5038235;28;20496;-73
2022/07/19 00:36:23;;;;;;;3.00;1.77;;;17.80;99.80;;;;;;5036639;28;20063;-74
2022/07/19 00:38:48;;;;;;;4.32;1.95;;;17.80;99.80;;;;;;5022516;28;20112;-74
2022/07/19 00:41:14;;;;;;;2.83;1.60;;;17.80;99.90;;;;;;5033434;28;20041;-74
2022/07/19 00:43:41;;;;;;;4.22;2.13;;;17.80;99.80;;;;;;5035709;28;20112;-73
2022/07/19 00:46:16;;;;;;;3.80;1.80;;;17.80;99.90;;;;;;5033831;28;20071;-73
2022/07/19 00:48:42;;;;;;;6.28;2.38;;;17.70;99.90;;;;;;5033354;28;20222;-74
2022/07/19 00:51:09;;;;;;;3.53;1.95;;;17.70;99.90;;;;;;5036593;28;20045;-73
2022/07/19 00:53:39;;;;;;;3.53;1.90;;;17.70;99.90;;;;;;5040029;28;20045;-74
2022/07/19 00:56:07;;;;;;;3.45;2.10;;;17.70;99.90;;;;;;5036948;28;20095;-74
2022/07/19 00:58:34;;;;;;;7.72;2.08;;;17.70;99.90;;;;;;5034511;28;20037;-73
2022/07/19 01:01:01;;;;;;;4.68;2.17;;;17.70;99.90;;;;;;5038072;28;20066;-73
2022/07/19 01:03:27;;;;;;;3.13;2.08;;;17.70;99.90;;;;;;5037732;28;20041;-74
2022/07/19 01:05:53;;;;;;;3.78;2.30;;;17.70;99.90;;;;;;5038060;28;20127;-74
2022/07/19 01:08:18;;;;;;;5.88;1.98;;;17.80;99.90;;;;;;5035866;28;20133;-74
2022/07/19 01:10:44;;;;;;;3.67;1.88;;;17.70;99.90;;;;;;5053028;28;20497;-74
2022/07/19 01:13:13;;;;;;;3.72;2.08;;;17.70;99.90;;;;;;5039078;28;20088;-74
2022/07/19 01:15:41;;;;;;;3.78;1.88;;;17.70;99.90;;;;;;5041643;28;20064;-74
2022/07/19 01:18:06;;;;;;;5.43;2.17;;;17.70;99.90;;;;;;5042406;28;20049;-73
2022/07/19 01:20:32;;;;;;;3.75;1.83;;;17.70;99.90;;;;;;5038804;28;20028;-73
2022/07/19 01:22:59;;;;;;;3.92;2.20;;;17.70;99.90;;;;;;5043335;28;20041;-73
2022/07/19 01:25:29;;;;;;;5.72;2.20;;;17.70;99.90;;;;;;5039476;28;20052;-73
2022/07/19 01:27:55;;;;;;;4.18;2.20;;;17.70;99.90;;;;;;5035021;28;20135;-74
2022/07/19 01:30:23;;;;;;;3.58;2.13;;;17.70;99.90;;;;;;5043423;28;20412;-74
2022/07/19 01:32:49;;;;;;;3.88;2.15;;;17.70;99.90;;;;;;5024711;28;20043;-73
2022/07/19 01:35:15;;;;;;;4.50;1.65;;;17.60;99.90;;;;;;5037829;28;20051;-74
2022/07/19 01:37:41;;;;;;;5.80;2.22;;;17.70;99.90;;;;;;5020161;28;20040;-73
2022/07/19 01:40:10;;;;;;;2.92;1.98;;;17.60;99.90;;;;;;5040593;28;20036;-73
2022/07/19 01:42:35;;;;;;;3.42;1.77;;;17.60;99.90;;;;;;5038870;28;20037;-74
2022/07/19 01:45:02;;;;;;;2.90;1.70;;;17.50;99.90;;;;;;5023646;28;20051;-73
2022/07/19 01:47:28;;;;;;;3.85;1.98;;;17.50;99.90;;;;;;5041094;28;20051;-73
2022/07/19 01:49:54;;;;;;;3.75;1.98;;;17.50;99.90;;;;;;5038677;28;20041;-73
2022/07/19 01:52:19;;;;;;;3.17;1.75;;;17.50;99.90;;;;;;5037809;28;20037;-74
2022/07/19 01:54:45;;;;;;;5.88;1.80;;;17.50;99.90;;;;;;5035807;28;20048;-74
2022/07/19 01:57:10;;;;;;;3.40;1.95;;;17.50;99.90;;;;;;5034980;28;20041;-74
2022/07/19 01:59:37;;;;;;;3.50;1.90;;;17.40;99.90;;;;;;5041094;28;20041;-74
2022/07/19 02:02:03;;;;;;;3.58;1.85;;;17.40;99.90;;;;;;5021534;28;20033;-74
2022/07/19 02:04:29;;;;;;;5.68;2.10;;;17.40;99.90;;;;;;5034731;28;20452;-74
2022/07/19 02:06:55;;;;;;;4.45;2.13;;;17.40;99.90;;;;;;5038061;28;20033;-74
2022/07/19 02:09:21;;;;;;;7.65;2.05;;;17.40;99.90;;;;;;5041251;28;20116;-74
2022/07/19 02:11:46;;;;;;;5.30;1.88;;;17.40;99.90;;;;;;5039596;28;20025;-74
2022/07/19 02:14:13;;;;;;;3.90;2.03;;;17.30;99.90;;;;;;5039743;28;20520;-74
2022/07/19 02:16:39;;;;;;;2.55;1.73;;;17.40;99.90;;;;;;5039618;28;20048;-73
2022/07/19 02:19:07;;;;;;;2.75;1.42;;;17.40;99.90;;;;;;5039947;28;20043;-73
2022/07/19 02:21:34;;;;;;;6.28;2.30;;;17.40;99.90;;;;;;5037973;28;20047;-73
2022/07/19 02:24:00;;;;;;;5.55;2.25;;;17.40;99.90;;;;;;5039953;28;20448;-73
2022/07/19 02:26:25;;;;;;;4.55;2.45;;;17.40;99.90;;;;;;5037769;28;20095;-73
2022/07/19 02:28:52;;;;;;;4.88;2.50;;;17.40;99.90;;;;;;5038970;28;20047;-73
2022/07/19 02:31:18;;;;;;;4.50;2.28;;;17.40;99.90;;;;;;5038472;28;20068;-74
2022/07/19 02:33:44;;;;;;;4.15;2.38;;;17.40;99.90;;;;;;5039783;28;20079;-73
2022/07/19 02:36:09;;;;;;;6.18;2.10;;;17.40;99.90;;;;;;5039716;28;20621;-74
2022/07/19 02:38:35;;;;;;;4.45;2.38;;;17.40;99.90;;;;;;5054192;28;20033;-74
2022/07/19 02:41:01;;;;;;;3.67;2.25;;;17.40;99.90;;;;;;5038603;28;20248;-74
2022/07/19 02:43:26;;;;;;;3.22;1.90;;;17.40;99.90;;;;;;5036895;28;20124;-74
2022/07/19 02:45:52;;;;;;;5.35;2.45;;;17.30;99.90;;;;;;5038565;28;20041;-73
2022/07/19 02:48:18;;;;;;;5.68;1.88;;;17.40;99.90;;;;;;5039261;28;20049;-73
2022/07/19 02:50:43;;;;;;;5.63;1.83;;;17.40;99.90;;;;;;5036476;28;20072;-74
2022/07/19 02:53:09;;;;;;;3.55;2.25;;;17.40;99.90;;;;;;5039027;28;20056;-73
2022/07/19 02:55:35;;;;;;;3.92;2.20;;;17.40;99.90;;;;;;5039143;28;20041;-73
2022/07/19 02:58:00;;;;;;;3.70;2.10;;;17.40;99.90;;;;;;5019905;28;20041;-73
2022/07/19 03:00:26;;;;;;;4.10;2.30;;;17.30;99.90;;;;;;5036176;28;20037;-74
2022/07/19 03:02:52;;;;;;;4.20;2.10;;;17.20;99.90;;;;;;5055297;28;20043;-73
2022/07/19 03:05:18;;;;;;;4.53;1.92;;;17.20;99.90;;;;;;5040302;28;20033;-73
2022/07/19 03:07:43;;;;;;;4.40;2.25;;;17.20;99.90;;;;;;5038044;28;20045;-74
2022/07/19 03:10:09;;;;;;;3.95;2.03;;;17.20;99.90;;;;;;5040430;28;20069;-73
2022/07/19 03:12:35;;;;;;;6.55;2.20;;;17.20;99.90;;;;;;5038393;28;20041;-74
2022/07/19 03:15:01;;;;;;;3.78;1.80;;;17.20;99.90;;;;;;5035555;28;20041;-73
2022/07/19 03:17:27;;;;;;;5.15;2.10;;;17.10;99.90;;;;;;5038758;28;20532;-73
2022/07/19 03:19:52;;;;;;;3.75;2.00;;;17.10;99.90;;;;;;5044357;28;20112;-74
2022/07/19 03:22:18;;;;;;;4.00;1.90;;;17.10;99.90;;;;;;5037933;28;20032;-73
2022/07/19 03:24:44;;;;;;;4.15;2.20;;;17.10;99.90;;;;;;5036331;28;20398;-73
2022/07/19 03:27:09;;;;;;;2.92;1.88;;;17.10;99.90;;;;;;5037978;28;20056;-74
2022/07/19 03:29:35;;;;;;;3.88;2.22;;;17.00;99.90;;;;;;5036528;28;20037;-74
2022/07/19 03:32:01;;;;;;;3.25;2.13;;;17.00;99.90;;;;;;5037701;28;20357;-74
2022/07/19 03:34:28;;;;;;;3.50;2.03;;;17.00;99.90;;;;;;5044556;28;20090;-73
2022/07/19 03:36:55;;;;;;;4.88;2.53;;;17.00;99.90;;;;;;5038712;28;20041;-74
2022/07/19 03:39:20;;;;;;;3.15;1.80;;;17.00;99.90;;;;;;5018100;28;20078;-74
2022/07/19 03:41:46;;;;;;;2.92;2.05;;;17.00;99.90;;;;;;5036537;28;20620;-73
2022/07/19 03:44:12;;;;;;;3.40;2.08;;;17.00;99.90;;;;;;5040857;28;20332;-73
2022/07/19 03:46:38;;;;;;;4.47;2.10;;;17.00;99.90;;;;;;5037918;28;20067;-74
2022/07/19 03:49:03;;;;;;;3.95;1.73;;;17.00;99.90;;;;;;5019948;28;20094;-74
2022/07/19 03:51:29;;;;;;;4.38;2.15;;;16.90;99.90;;;;;;5046212;28;20116;-74
2022/07/19 03:53:54;;;;;;;4.75;2.40;;;17.00;99.90;;;;;;5037667;28;20631;-73
2022/07/19 03:56:20;;;;;;;4.55;2.15;;;17.00;99.90;;;;;;5037628;28;20041;-73
2022/07/19 03:58:49;;;;;;;3.50;1.83;;;17.10;99.90;;;;;;5036864;28;20037;-73
2022/07/19 04:01:16;;;;;;;3.90;2.20;;;17.10;99.90;;;;;;5040580;28;20040;-74
2022/07/19 04:03:41;;;;;;;4.30;1.67;;;17.00;99.90;;;;;;5052686;28;20029;-74
2022/07/19 04:06:09;;;;;;;5.95;2.03;;;17.10;99.90;;;;;;5020420;28;20045;-74
2022/07/19 04:08:35;;;;;;;6.68;1.90;;;17.10;99.90;;;;;;5037672;28;20410;-73
2022/07/19 04:11:01;;;;;;;4.53;1.90;;;17.10;99.90;;;;;;5036963;28;20508;-74
2022/07/19 04:13:26;;;;;;;6.45;1.95;;;17.10;99.90;;;;;;5034832;28;20053;-74
2022/07/19 04:15:52;;;;;;;4.63;1.88;;;17.10;99.90;;;;;;5021422;28;20041;-73
2022/07/19 04:18:18;;;;;;;3.40;1.50;;;17.00;99.90;;;;;;5040228;28;20060;-74
2022/07/19 04:20:44;;;;;;;4.32;2.20;;;17.00;99.90;;;;;;5037246;28;20513;-73
2022/07/19 04:23:09;;;;;;;4.55;2.13;;;17.00;99.90;;;;;;5038042;28;20497;-74
2022/07/19 04:25:35;;;;;;;2.85;2.03;;;17.00;99.90;;;;;;5040193;28;20036;-73
2022/07/19 04:28:02;;;;;;;3.10;1.98;;;17.10;99.90;;;;;;5019779;28;20411;-74
2022/07/19 04:30:29;;;;;;;5.50;2.13;;;17.10;99.90;;;;;;5037149;28;20040;-73
2022/07/19 04:32:54;;;;;;;4.57;2.70;;;17.10;99.90;;;;;;5032941;28;20394;-74
2022/07/19 04:35:20;;;;;;;4.60;2.30;;;17.10;99.90;;;;;;5035994;28;20043;-74
2022/07/19 04:37:46;;;;;;;3.40;1.80;;;17.10;99.90;;;;;;5037593;28;20125;-74
2022/07/19 04:40:12;;;;;;;6.93;1.98;;;17.10;99.90;;;;;;5033613;28;20616;-73
2022/07/19 04:42:38;;;;;;;4.97;2.53;;;17.10;99.90;;;;;;5035529;28;20102;-73
2022/07/19 04:45:04;;;;;;;4.65;2.40;;;17.10;99.90;;;;;;5038068;28;20491;-74
2022/07/19 04:47:30;;;;;;;5.90;2.47;;;17.20;99.90;;;;;;5036875;28;20505;-73
2022/07/19 04:49:55;;;;;;;6.20;2.30;;;17.20;99.90;;;;;;5036934;28;20037;-74
2022/07/19 04:52:21;;;;;;;6.15;2.10;;;17.20;99.90;;;;;;5037169;28;20602;-74
2022/07/19 04:54:47;;;;;;;3.40;2.20;;;17.20;99.90;;;;;;5037947;28;20041;-74
2022/07/19 04:57:13;;;;;;;4.93;2.25;;;17.30;99.90;;;;;;5029658;28;20039;-74
2022/07/19 04:59:39;;;;;;;3.03;1.90;;;17.30;99.90;;;;;;5036152;28;20140;-74
2022/07/19 05:02:05;;;;;;;4.30;2.25;;;17.30;99.90;;;;;;5039965;28;20040;-74
2022/07/19 05:04:31;;;;;;;5.18;2.47;;;17.40;99.90;;;;;;5034071;28;20037;-74
2022/07/19 05:06:56;;;;;;;4.78;1.92;;;17.30;99.90;;;;;;5051266;28;20029;-74
2022/07/19 05:09:31;;;;;;;5.05;2.00;;;17.40;99.90;;;;;;5036314;28;20107;-74
2022/07/19 05:11:57;;;;;;;4.70;2.10;;;17.50;99.90;;;;;;5035317;28;20588;-74
2022/07/19 05:14:23;;;;;;;4.32;2.45;;;17.50;99.90;;;;;;5038975;28;20131;-74
2022/07/19 05:16:49;;;;;;;2.83;1.98;;;17.60;99.90;;;;;;5034237;28;20073;-74
2022/07/19 05:19:15;;;;;;;3.30;1.83;;;17.60;99.90;;;;;;5039243;28;20122;-74
2022/07/19 05:21:41;;;;;;;4.95;2.30;;;17.70;99.90;;;;;;5036612;28;20678;-74
2022/07/19 05:24:07;;;;;;;4.47;2.33;;;17.60;99.90;;;;;;5021936;28;20037;-73
2022/07/19 05:26:33;;;;;;;3.97;2.10;;;17.70;99.90;;;;;;5032194;28;20504;-74
2022/07/19 05:28:59;;;;;;;3.67;1.88;;;17.70;99.90;;;;;;5036082;28;20368;-74
2022/07/19 05:31:25;;;;;;;3.75;1.98;;;17.80;99.90;;;;;;5038127;28;20052;-74
2022/07/19 05:33:51;;;;;;;5.85;1.70;;;17.80;99.90;;;;;;5034141;28;20437;-74
2022/07/19 05:36:17;;;;;;;4.90;2.13;;;17.90;99.90;;;;;;5037901;28;20509;-74
2022/07/19 05:38:42;;;;;;;2.90;1.90;;;17.90;99.90;;;;;;5035040;28;20037;-74
2022/07/19 05:41:10;;;;;;;4.32;1.83;;;18.00;99.90;;;;;;5037343;28;20044;-74
2022/07/19 05:43:37;;;;;;;3.83;1.98;;;18.00;99.90;;;;;;5018760;28;20065;-74
2022/07/19 05:46:04;;;;;;;4.80;2.03;;;18.10;99.90;;;;;;5035526;28;20040;-74
2022/07/19 05:48:30;;;;;;;4.70;1.95;;;18.10;99.90;;;;;;5037228;28;20029;-74
2022/07/19 05:50:56;;;;;;;4.30;2.00;;;18.30;99.90;;;;;;5051242;28;20083;-74
2022/07/19 05:53:22;;;;;;;5.32;2.58;;;18.30;99.80;;;;;;5033541;28;20080;-74
2022/07/19 05:55:47;;;;;;;5.10;1.88;;;18.40;99.70;;;;;;5033054;28;20056;-74
2022/07/19 05:58:13;;;;;;;6.00;1.70;;;18.40;99.70;;;;;;5019392;28;20234;-74
2022/07/19 06:01:17;;;;;;;2.88;1.60;;;18.40;99.60;;;;;;5039119;28;20104;-74
2022/07/19 06:03:24;;;;;;;3.05;1.90;;;18.50;99.60;;;;;;5035486;28;20045;-74
2022/07/19 06:05:50;;;;;;;8.60;2.45;;;18.50;99.60;;;;;;5020585;28;20033;-74
2022/07/19 06:08:16;;;;;;;5.18;2.40;;;18.70;99.40;;;;;;5035447;28;20048;-74
2022/07/19 06:10:41;;;;;;;4.18;2.17;;;18.70;99.20;;;;;;5039426;28;20036;-74
2022/07/19 06:13:07;;;;;;;4.90;2.15;;;18.90;98.90;;;;;;5042741;28;20711;-74
2022/07/19 06:15:32;;;;;;;5.22;2.13;;;19.00;98.70;;;;;;5027167;28;20083;-74
2022/07/19 06:17:58;;;;;;;5.07;1.90;;;19.00;98.70;;;;;;5045030;28;20033;-74
2022/07/19 06:20:23;;;;;;;3.97;1.60;;;19.10;98.70;;;;;;5034698;28;20098;-72
2022/07/19 06:22:49;;;;;;;5.05;2.05;;;19.10;98.70;;;;;;5039883;28;20037;-74
2022/07/19 06:25:15;;;;;;;5.28;2.13;;;19.20;98.60;;;;;;5037716;28;20047;-74
2022/07/19 06:27:40;;;;;;;4.18;2.20;;;19.20;98.40;;;;;;5039101;28;20506;-74
2022/07/19 06:30:06;;;;;;;3.42;1.83;;;19.30;98.30;;;;;;5039023;28;20090;-74
2022/07/19 06:32:32;;;;;;;4.28;1.95;;;19.40;98.30;;;;;;5036653;28;20083;-74
2022/07/19 06:34:57;;;;;;;4.68;2.08;;;19.50;98.00;;;;;;5037531;28;20103;-74
2022/07/19 06:37:23;;;;;;;3.00;1.75;;;19.60;97.80;;;;;;5034348;28;20045;-74
2022/07/19 06:39:49;;;;;;;3.85;2.20;;;19.60;97.70;;;;;;5020190;28;20475;-74
2022/07/19 06:42:14;;;;;;;5.55;2.33;;;20.00;97.80;;;;;;5033461;28;20033;-74
2022/07/19 06:44:40;;;;;;;5.65;2.38;;;21.00;96.50;;;;;;5036689;28;20095;-74
2022/07/19 06:47:05;;;;;;;3.65;2.13;;;22.00;94.40;;;;;;5038977;28;20079;-74
2022/07/19 06:49:31;;;;;;;6.35;2.15;;;22.90;92.50;;;;;;5034788;28;20445;-74
2022/07/19 06:51:56;;;;;;;7.25;2.53;;;23.70;90.80;;;;;;5038388;28;20029;-75
2022/07/19 06:54:22;;;;;;;4.35;2.08;;;24.40;89.30;;;;;;5038927;28;20421;-75
2022/07/19 06:56:48;;;;;;;4.15;1.60;;;25.00;86.90;;;;;;5039352;28;20482;-75
2022/07/19 06:59:13;;;;;;;3.90;2.35;;;25.40;83.80;;;;;;5038731;28;20134;-75
2022/07/19 07:01:39;;;;;;;5.20;1.70;;;25.60;82.70;;;;;;5035953;28;20045;-75
2022/07/19 07:04:04;;;;;;;4.88;1.90;;;25.30;83.60;;;;;;5035884;28;20073;-75
2022/07/19 07:06:30;;;;;;;3.15;1.80;;;24.90;85.30;;;;;;5037702;28;20053;-69
2022/07/19 07:08:56;;;;;;;6.90;1.35;;;24.60;87.40;;;;;;5039490;28;20037;-71
2022/07/19 07:11:21;;;;;;;3.72;1.85;;;24.30;89.10;;;;;;5016842;28;20118;-71
2022/07/19 07:13:47;;;;;;;2.92;1.48;;;24.00;90.30;;;;;;5039341;28;20532;-72
2022/07/19 07:16:12;;;;;;;3.85;1.58;;;23.70;90.90;;;;;;5038134;28;20044;-72
2022/07/19 07:18:38;;;;;;;2.97;1.67;;;23.50;91.20;;;;;;5038145;28;20043;-71
2022/07/19 07:21:04;;;;;;;3.65;1.98;;;23.30;91.30;;;;;;5042057;28;20094;-71
2022/07/19 07:23:29;;;;;;;3.67;2.00;;;23.20;91.50;;;;;;5038377;28;20045;-71
2022/07/19 07:25:55;;;;;;;3.25;1.67;;;23.10;91.70;;;;;;5027302;28;20458;-72
2022/07/19 07:28:21;;;;;;;2.92;1.42;;;23.00;91.80;;;;;;5031148;28;20076;-72
2022/07/19 07:30:46;;;;;;;3.65;1.88;;;23.00;91.90;;;;;;5031178;28;20035;-72
2022/07/19 07:33:12;;;;;;;3.03;1.63;;;22.90;92.00;;;;;;5034624;28;20124;-72
2022/07/19 07:35:37;;;;;;;4.70;1.63;;;22.80;92.10;;;;;;5033638;28;20116;-72
2022/07/19 07:38:03;;;;;;;4.68;1.63;;;22.80;92.50;;;;;;5035078;28;20795;-72
2022/07/19 07:40:28;;;;;;;4.57;2.13;;;22.80;92.50;;;;;;5014136;28;20586;-72
2022/07/19 07:42:54;;;;;;;3.65;1.48;;;22.80;92.60;;;;;;5040268;28;20084;-72
2022/07/19 07:45:20;;;;;;;3.03;1.50;;;22.80;92.60;;;;;;5038630;28;20036;-72
2022/07/19 07:47:45;;;;;;;2.63;1.30;;;22.80;92.70;;;;;;5037964;28;20036;-72
2022/07/19 07:50:11;;;;;;;2.72;1.50;;;22.80;92.70;;;;;;5039269;28;20475;-71
2022/07/19 07:52:37;;;;;;;3.17;1.40;;;22.80;92.80;;;;;;5036932;28;20144;-72
2022/07/19 07:55:04;;;;;;;2.25;1.38;;;22.80;92.60;;;;;;5043103;28;20029;-72
2022/07/19 07:57:30;;;;;;;3.03;1.42;;;22.90;92.60;;;;;;5039223;28;20503;-72
2022/07/19 07:59:55;;;;;;;3.05;1.20;;;22.90;92.30;;;;;;5037724;28;20041;-72
2022/07/19 08:02:21;;;;;;;2.28;0.90;;;23.00;92.40;;;;;;5030176;28;20457;-72
2022/07/19 08:04:47;;;;;;;2.65;1.30;;;23.00;92.20;;;;;;5027093;28;20037;-72
2022/07/19 08:07:13;;;;;;;2.95;1.27;;;23.00;92.20;;;;;;5018163;28;20530;-72
2022/07/19 08:09:38;;;;;;;5.05;1.33;;;23.10;92.00;;;;;;5032403;28;20102;-72
2022/07/19 08:12:04;;;;;;;2.47;1.15;;;23.10;92.10;;;;;;5040203;28;20044;-72
2022/07/19 08:14:30;;;;;;;2.30;1.10;;;23.20;92.00;;;;;;5030652;28;20056;-71
2022/07/19 08:16:55;;;;;;;3.45;1.02;;;23.20;92.00;;;;;;5050803;28;20045;-71
2022/07/19 08:19:21;;;;;;;2.20;0.90;;;23.30;91.80;;;;;;5029764;28;20052;-72
2022/07/19 08:21:46;;;;;;;2.90;1.38;;;23.40;91.40;;;;;;5033559;28;20563;-72
2022/07/19 08:24:12;;;;;;;2.53;1.20;;;23.40;91.40;;;;;;5033284;28;20048;-71
2022/07/19 08:26:37;;;;;;;2.42;1.23;;;23.50;91.20;;;;;;5039964;28;20039;-71
2022/07/19 08:29:03;;;;;;;3.20;1.30;;;23.50;90.90;;;;;;5029138;28;20048;-70
2022/07/19 08:31:29;;;;;;;2.28;1.00;;;23.60;90.70;;;;;;5031531;28;20589;-75
2022/07/19 08:33:54;;;;;;;1.65;0.80;;;23.60;90.60;;;;;;5035900;28;20111;-76
2022/07/19 08:36:20;;;;;;;2.78;1.33;;;23.70;90.50;;;;;;5019524;28;20044;-73
2022/07/19 08:38:46;;;;;;;2.53;0.98;;;23.70;90.40;;;;;;5014916;28;20041;-74
2022/07/19 08:41:13;;;;;;;3.58;1.17;;;23.80;90.00;;;;;;5034779;28;20041;-74
2022/07/19 08:43:39;;;;;;;2.28;1.00;;;23.80;89.60;;;;;;5019620;28;20083;-73
2022/07/19 08:46:04;;;;;;;3.38;1.08;;;23.90;89.40;;;;;;5047879;28;20064;-74
2022/07/19 08:48:35;;;;;;;1.95;0.85;;;24.00;89.00;;;;;;5032125;28;20041;-74
2022/07/19 08:51:02;;;;;;;2.10;0.90;;;24.00;88.60;;;;;;5015411;28;20146;-74
2022/07/19 08:53:30;;;;;;;2.10;1.00;;;24.10;87.80;;;;;;5033586;28;20056;-74
2022/07/19 08:55:56;;;;;;;1.85;0.73;;;24.10;87.50;;;;;;5035573;28;20040;-74
2022/07/19 08:58:21;;;;;;;1.92;0.90;;;24.20;87.30;;;;;;5049673;28;20044;-74
2022/07/19 09:00:47;;;;;;;2.80;1.00;;;24.30;86.40;;;;;;5050803;28;20182;-73
2022/07/19 09:03:13;;;;;;;1.92;0.88;;;24.30;85.60;;;;;;5039488;28;20041;-74
2022/07/19 09:05:38;;;;;;;3.13;1.10;;;24.40;84.80;;;;;;5036120;28;20069;-74
2022/07/19 09:08:07;;;;;;;4.88;0.88;;;24.50;84.90;;;;;;5030818;28;20415;-74
2022/07/19 09:10:34;;;;;;;1.67;0.80;;;24.50;84.40;;;;;;5030359;28;20041;-74
2022/07/19 09:13:15;;;;;;;1.50;0.90;;;24.60;84.20;;;;;;5030143;28;20091;-74
2022/07/19 09:15:50;;;;;;;2.33;1.15;;;24.70;81.00;;;;;;5015950;28;20042;-74
2022/07/19 09:18:17;;;;;;;2.17;1.00;;;24.70;81.70;;;;;;5047301;28;20083;-69
2022/07/19 09:20:44;;;;;;;4.40;1.08;;;24.80;82.10;;;;;;5030715;28;20163;-77
2022/07/19 09:23:12;;;;;;;1.73;0.82;;;24.90;82.00;;;;;;5029011;28;20033;-78
2022/07/19 09:25:43;;;;;;;1.55;0.90;;;25.00;81.40;;;;;;5029891;28;20521;-77
2022/07/19 09:28:09;;;;;;;1.92;1.02;;;25.10;80.00;;;;;;5042666;28;20060;-77
2022/07/19 09:30:39;;;;;;;2.55;1.10;;;25.20;80.20;;;;;;5030892;28;20067;-82
2022/07/19 09:33:06;;;;;;;2.22;1.08;;;25.20;79.00;;;;;;5051033;28;20057;-71
2022/07/19 09:35:37;;;;;;;2.22;0.90;;;25.30;78.50;;;;;;5035352;28;20040;-74
2022/07/19 09:38:27;;;;;;;2.78;0.77;;;25.40;76.80;;;;;;5034717;28;20072;-73
2022/07/19 09:41:06;;;;;;;4.63;1.08;;;25.40;73.10;;;;;;5031972;28;20037;-74
2022/07/19 09:43:48;;;;;;;1.75;0.80;;;25.50;76.40;;;;;;5037477;28;20124;-74
2022/07/19 09:46:50;;;;;;;1.98;0.82;;;25.60;72.50;;;;;;5017908;28;20041;-74
2022/07/19 09:49:18;;;;;;;3.67;0.80;;;25.60;72.00;;;;;;4994871;28;20477;-74
2022/07/19 09:51:48;;;;;;;1.60;0.90;;;25.70;74.30;;;;;;5009503;28;20102;-74
2022/07/19 09:54:20;;;;;;;1.65;0.77;;;25.80;70.80;;;;;;5032848;28;20118;-73
2022/07/19 09:56:48;;;;;;;1.48;0.63;;;25.90;71.70;;;;;;5037451;28;20131;-74
2022/07/19 09:59:14;;;;;;;1.90;0.70;;;26.00;71.10;;;;;;5033080;28;20048;-74
2022/07/19 10:01:41;;;;;;;4.57;0.70;;;26.10;70.50;;;;;;5034553;28;20056;-74
2022/07/19 10:04:10;;;;;;;2.22;0.80;;;26.10;70.40;;;;;;5035952;28;20041;-74
2022/07/19 10:06:37;;;;;;;1.23;0.80;;;26.00;69.40;;;;;;5036417;28;20045;-76
2022/07/19 10:09:08;;;;;;;3.55;0.93;;;26.20;68.80;;;;;;5033926;28;20455;-76
2022/07/19 10:11:34;;;;;;;3.63;0.90;;;26.20;67.90;;;;;;5035782;28;20030;-75
2022/07/19 10:14:00;;;;;;;2.40;0.80;;;26.30;68.30;;;;;;5043052;28;21699;-75
2022/07/19 10:16:53;;;;;;;2.05;0.77;;;26.40;68.00;;;;;;5034100;28;20312;-75
2022/07/19 10:19:34;;;;;;;2.22;0.90;;;26.40;66.30;;;;;;5020633;28;20375;-74
2022/07/19 10:22:01;;;;;;;1.48;0.57;;;26.50;67.30;;;;;;5048766;28;20059;-73
2022/07/19 10:24:52;;;;;;;2.55;0.63;;;26.60;67.00;;;;;;5056194;28;20091;-74
2022/07/19 10:27:36;;;;;;;1.38;0.80;;;26.60;63.60;;;;;;5032688;28;20399;-73
2022/07/19 10:30:10;;;;;;;1.95;0.88;;;26.70;63.40;;;;;;5046547;28;20128;-73
2022/07/19 10:32:37;;;;;;;1.23;0.82;;;26.70;64.40;;;;;;5018072;28;20051;-73
2022/07/19 10:35:25;;;;;;;2.05;0.80;;;26.90;64.80;;;;;;5048557;28;20042;-74
2022/07/19 10:38:11;;;;;;;1.50;0.90;;;26.90;62.30;;;;;;5032003;28;20509;-73
2022/07/19 10:40:43;;;;;;;1.80;0.90;;;27.00;61.50;;;;;;5035304;28;20523;-73
2022/07/19 10:43:11;;;;;;;0.93;0.70;;;27.00;62.80;;;;;;5018740;28;20479;-73
2022/07/19 10:45:55;;;;;;;1.80;0.90;;;27.10;62.30;;;;;;5038732;28;20044;-74
2022/07/19 10:48:39;;;;;;;2.47;0.90;;;27.20;61.90;;;;;;5035154;28;20044;-73
2022/07/19 10:51:06;;;;;;;1.40;0.55;;;27.20;60.60;;;;;;5034322;28;20091;-73
2022/07/19 10:53:41;;;;;;;1.70;0.70;;;27.20;61.70;;;;;;5038751;28;20048;-74
2022/07/19 10:56:29;;;;;;;1.52;0.70;;;27.20;60.80;;;;;;5020575;28;20522;-74
2022/07/19 10:58:56;;;;;;;1.10;0.63;;;27.30;58.90;;;;;;5033676;28;20041;-72
2022/07/19 11:01:24;;;;;;;1.85;0.82;;;27.30;61.00;;;;;;5031234;28;20044;-73
2022/07/19 11:03:51;;;;;;;1.88;0.63;;;27.40;60.50;;;;;;5034993;28;20068;-73
2022/07/19 11:06:25;;;;;;;1.85;0.80;;;27.50;60.20;;;;;;5053268;28;20052;-73
2022/07/19 11:08:58;;;;;;;2.00;0.88;;;27.50;59.10;;;;;;5023290;28;20045;-73
2022/07/19 11:11:26;;;;;;;1.77;0.70;;;27.60;59.20;;;;;;5036615;28;20162;-73
2022/07/19 11:13:54;;;;;;;1.70;1.00;;;27.60;59.70;;;;;;5037947;28;20601;-73
2022/07/19 11:16:24;;;;;;;1.58;0.80;;;27.70;59.10;;;;;;5039849;28;20090;-73
2022/07/19 11:18:50;;;;;;;2.22;0.88;;;27.80;59.00;;;;;;5038299;28;20036;-73
2022/07/19 11:21:16;;;;;;;2.28;0.85;;;27.90;58.70;;;;;;5036030;28;20045;-73
2022/07/19 11:23:43;;;;;;;1.00;0.60;;;27.90;58.70;;;;;;5037064;28;20048;-73
2022/07/19 11:26:11;;;;;;;1.90;0.82;;;27.90;58.50;;;;;;5038889;28;20068;-73
2022/07/19 11:28:39;;;;;;;1.75;0.80;;;27.90;58.40;;;;;;5038044;28;20040;-73
2022/07/19 11:31:21;;;;;;;1.48;0.70;;;27.90;58.80;;;;;;5041680;28;20437;-72
2022/07/19 11:33:49;;;;;;;1.05;0.70;;;28.00;59.20;;;;;;5031158;28;20052;-73
2022/07/19 11:36:16;;;;;;;1.48;0.73;;;28.00;59.10;;;;;;5033022;28;20152;-73
2022/07/19 11:38:55;;;;;;;1.27;0.60;;;28.10;59.60;;;;;;5033577;28;20095;-73
2022/07/19 11:41:39;;;;;;;1.92;1.00;;;28.10;58.20;;;;;;5019506;28;20478;-73
2022/07/19 11:44:09;;;;;;;1.33;0.85;;;28.20;56.30;;;;;;5036914;28;20048;-73
2022/07/19 11:46:38;;;;;;;2.42;0.80;;;28.20;57.60;;;;;;5032541;28;20055;-74
2022/07/19 11:49:06;;;;;;;1.85;0.75;;;28.30;57.40;;;;;;5031729;28;20064;-73
2022/07/19 11:51:32;;;;;;;2.10;1.17;;;28.40;57.00;;;;;;5028684;28;20409;-73
2022/07/19 11:54:00;;;;;;;1.90;0.90;;;28.40;56.80;;;;;;5055963;28;20039;-74
2022/07/19 11:56:31;;;;;;;1.48;0.85;;;28.40;56.50;;;;;;5034959;28;20037;-73
2022/07/19 11:58:58;;;;;;;3.00;0.80;;;28.40;56.70;;;;;;5024514;28;20124;-74
2022/07/19 12:01:29;;;;;;;2.15;0.80;;;28.50;56.70;;;;;;5033650;28;20040;-73
2022/07/19 12:04:05;;;;;;;2.00;0.70;;;28.50;55.70;;;;;;5033564;28;20051;-73
2022/07/19 12:06:52;;;;;;;1.58;0.70;;;28.50;56.00;;;;;;5033657;28;20240;-73
2022/07/19 12:09:29;;;;;;;0.88;0.60;;;28.50;54.20;;;;;;5035632;28;20052;-73
2022/07/19 12:11:55;;;;;;;1.27;0.70;;;28.70;54.00;;;;;;5033296;28;20059;-73
2022/07/19 12:14:30;;;;;;;0.82;0.40;;;28.70;55.60;;;;;;5020280;28;20101;-73
2022/07/19 12:17:15;;;;;;;1.23;0.60;;;28.70;54.70;;;;;;5042491;28;20037;-73
2022/07/19 12:19:48;;;;;;;1.13;0.65;;;28.70;52.60;;;;;;5033832;28;20103;-73
2022/07/19 12:22:27;;;;;;;0.93;0.63;;;28.70;54.80;;;;;;5036027;28;20087;-73
2022/07/19 12:24:53;;;;;;;1.95;0.68;;;28.80;53.00;;;;;;5032995;28;20037;-73
2022/07/19 12:27:20;;;;;;;1.60;0.90;;;28.90;54.10;;;;;;5033823;28;20521;-73
2022/07/19 12:29:49;;;;;;;0.75;0.52;;;28.90;54.10;;;;;;5012048;28;20563;-72
2022/07/19 12:32:30;;;;;;;2.08;0.63;;;28.90;54.00;;;;;;5019856;28;20041;-73
2022/07/19 12:34:58;;;;;;;1.08;0.70;;;28.90;52.70;;;;;;5011057;28;20798;-73
2022/07/19 12:37:25;;;;;;;1.83;0.90;;;29.00;54.30;;;;;;4991004;28;20037;-67
2022/07/19 12:40:08;;;;;;;1.60;0.88;;;29.00;53.40;;;;;;5016551;28;20033;-72
2022/07/19 12:42:46;;;;;;;2.65;0.40;;;29.10;52.40;;;;;;5046794;28;20033;-72
2022/07/19 12:45:18;;;;;;;1.73;0.68;;;29.10;51.50;;;;;;5033385;28;20048;-72
2022/07/19 12:47:45;;;;;;;1.20;0.50;;;29.20;52.80;;;;;;5024681;28;20045;-72
2022/07/19 12:50:27;;;;;;;0.65;0.50;;;29.20;52.70;;;;;;5032386;28;20668;-72
2022/07/19 12:52:55;;;;;;;1.58;0.75;;;29.20;52.10;;;;;;5042147;28;20045;-73